MSC Lea — 9HA2639 — position and weather

sailwx.info

Track history (hours):
 
Tides and Currents Weather Stations Pressure Air Temp Water Temp Dewpoint Dewpoint Depression Visibility Wind Speed Wind Dir Waves Ship Positions

MSC Lea

Last reported at 2014-Dec-21 00:09 UTC. Time now 2014-Dec-21 06:12 UTC.
Position N 37°33' E 025°54'.

Length 217 m; draft 7.9 m.

Type: Ship (hazmat cat A). MMSI: 215101000.

Date/timePositionNaut miles runAvg speedWind from/ knotsBaromVisibWave heightAir tempDewpointWater temp
2014-Dec-21 00:09N 37°33' E 025°54'813.5
2014-Dec-20 23:33N 37°25' E 025°56'1413.9
2014-Dec-20 22:33N 37°13' E 026°04'1414.3
2014-Dec-20 21:33N 36°60' E 026°11'1414.2
2014-Dec-20 20:33N 36°49' E 026°24'1414.1
2014-Dec-20 19:33N 36°40' E 026°37'1413.7
2014-Dec-20 18:33N 36°30' E 026°49'  
2014-Dec-16 12:33N 36°15' E 027°01'1919.1
2014-Dec-16 11:32N 36°30' E 026°45'1919.7
2014-Dec-16 10:33N 36°44' E 026°28'2019.9
2014-Dec-16 09:33N 36°58' E 026°11'2020.2
2014-Dec-16 08:34N 37°16' E 025°60'2019.7
2014-Dec-16 07:33N 37°35' E 025°52'2219.5
2014-Dec-16 06:26N 37°57' E 025°50'2319.9
2014-Dec-16 05:18N 38°19' E 025°46'9319.5
2014-Dec-16 00:31N 39°53' E 025°53'5613.9
2014-Dec-15 20:29N 40°28' E 026°50'119 5.3
2014-Dec-14 22:05N 41°26' E 029°07'15 0.5
2014-Dec-13 15:20N 41°29' E 029°27'1013.2
2014-Dec-13 14:33N 41°33' E 029°39'37914.0
2014-Dec-12 11:31N 44°25' E 037°22'1414.7
2014-Dec-12 10:34N 44°32' E 037°39'1111.5
2014-Dec-12 09:34N 44°40' E 037°50'4 4.1
2014-Dec-12 08:31N 44°44' E 037°47'0 0.0
2014-Dec-12 07:31N 44°44' E 037°47'0 0.0
2014-Dec-12 06:32N 44°44' E 037°47'0 0.0
2014-Dec-12 05:33N 44°44' E 037°47'0 0.0
2014-Dec-12 04:33N 44°44' E 037°47'0 0.0
2014-Dec-12 03:31N 44°44' E 037°47'0 0.0
2014-Dec-12 02:32N 44°44' E 037°47'0 0.0
2014-Dec-12 01:32N 44°44' E 037°47'0 0.0
2014-Dec-12 00:33N 44°44' E 037°47'0 0.0
2014-Dec-11 23:31N 44°44' E 037°47'0 0.0
2014-Dec-11 22:31N 44°44' E 037°47'0 0.0
2014-Dec-11 21:32N 44°44' E 037°47'0 0.0
2014-Dec-11 20:30N 44°44' E 037°47'0 0.0
2014-Dec-11 19:33N 44°44' E 037°47'0 0.0
2014-Dec-11 18:31N 44°44' E 037°47'0 0.0
2014-Dec-11 17:32N 44°44' E 037°47'0 0.0
2014-Dec-11 16:32N 44°44' E 037°47'0 0.0
2014-Dec-11 15:33N 44°44' E 037°47'0 0.0
2014-Dec-11 14:31N 44°44' E 037°47'0 0.0
2014-Dec-11 13:31N 44°44' E 037°47'0 0.0
2014-Dec-11 12:32N 44°44' E 037°47'0 0.0
2014-Dec-11 11:33N 44°44' E 037°47'0 0.0
2014-Dec-11 10:33N 44°44' E 037°47'0 0.0
2014-Dec-11 09:31N 44°44' E 037°47'0 0.0
2014-Dec-11 08:32N 44°44' E 037°47'0 0.0
2014-Dec-11 07:32N 44°44' E 037°47'0 0.0
2014-Dec-11 06:33N 44°44' E 037°47'0 0.0
2014-Dec-11 05:31N 44°44' E 037°47'0 0.0
2014-Dec-11 04:28N 44°44' E 037°47'0 0.0
2014-Dec-11 03:32N 44°44' E 037°47'0 0.0
2014-Dec-11 02:33N 44°44' E 037°47'0 0.0
2014-Dec-11 01:33N 44°44' E 037°47'0 0.0
2014-Dec-11 00:31N 44°44' E 037°47'  
Track history (hours):
 
Tides and Currents Weather Stations Pressure Air Temp Water Temp Dewpoint Dewpoint Depression Visibility Wind Speed Wind Dir Waves Ship Positions

MSC Lea

Last reported at 2014-Dec-21 00:09 UTC. Time now 2014-Dec-21 06:13 UTC.
Position N 37°33' E 025°54'.

Length 217 m; draft 7.9 m.

Type: Ship (hazmat cat A). MMSI: 215101000.

Date/timePositionNaut miles runAvg speedWind from/ knotsBaromVisibWave heightAir tempDewpointWater temp
2014-Dec-21 00:09N 37°33' E 025°54'813.5
2014-Dec-20 23:33N 37°25' E 025°56'1413.9
2014-Dec-20 22:33N 37°13' E 026°04'1414.3
2014-Dec-20 21:33N 36°60' E 026°11'1414.2
2014-Dec-20 20:33N 36°49' E 026°24'1414.1
2014-Dec-20 19:33N 36°40' E 026°37'1413.7
2014-Dec-20 18:33N 36°30' E 026°49'  
2014-Dec-16 12:33N 36°15' E 027°01'1919.1
2014-Dec-16 11:32N 36°30' E 026°45'1919.7
2014-Dec-16 10:33N 36°44' E 026°28'2019.9
2014-Dec-16 09:33N 36°58' E 026°11'2020.2
2014-Dec-16 08:34N 37°16' E 025°60'2019.7
2014-Dec-16 07:33N 37°35' E 025°52'2219.5
2014-Dec-16 06:26N 37°57' E 025°50'2319.9
2014-Dec-16 05:18N 38°19' E 025°46'9319.5
2014-Dec-16 00:31N 39°53' E 025°53'5613.9
2014-Dec-15 20:29N 40°28' E 026°50'119 5.3
2014-Dec-14 22:05N 41°26' E 029°07'15 0.5
2014-Dec-13 15:20N 41°29' E 029°27'1013.2
2014-Dec-13 14:33N 41°33' E 029°39'37914.0
2014-Dec-12 11:31N 44°25' E 037°22'1414.7
2014-Dec-12 10:34N 44°32' E 037°39'1111.5
2014-Dec-12 09:34N 44°40' E 037°50'4 4.1
2014-Dec-12 08:31N 44°44' E 037°47'0 0.0
2014-Dec-12 07:31N 44°44' E 037°47'0 0.0
2014-Dec-12 06:32N 44°44' E 037°47'0 0.0
2014-Dec-12 05:33N 44°44' E 037°47'0 0.0
2014-Dec-12 04:33N 44°44' E 037°47'0 0.0
2014-Dec-12 03:31N 44°44' E 037°47'0 0.0
2014-Dec-12 02:32N 44°44' E 037°47'0 0.0
2014-Dec-12 01:32N 44°44' E 037°47'0 0.0
2014-Dec-12 00:33N 44°44' E 037°47'0 0.0
2014-Dec-11 23:31N 44°44' E 037°47'0 0.0
2014-Dec-11 22:31N 44°44' E 037°47'0 0.0
2014-Dec-11 21:32N 44°44' E 037°47'0 0.0
2014-Dec-11 20:30N 44°44' E 037°47'0 0.0
2014-Dec-11 19:33N 44°44' E 037°47'0 0.0
2014-Dec-11 18:31N 44°44' E 037°47'0 0.0
2014-Dec-11 17:32N 44°44' E 037°47'0 0.0
2014-Dec-11 16:32N 44°44' E 037°47'0 0.0
2014-Dec-11 15:33N 44°44' E 037°47'0 0.0
2014-Dec-11 14:31N 44°44' E 037°47'0 0.0
2014-Dec-11 13:31N 44°44' E 037°47'0 0.0
2014-Dec-11 12:32N 44°44' E 037°47'0 0.0
2014-Dec-11 11:33N 44°44' E 037°47'0 0.0
2014-Dec-11 10:33N 44°44' E 037°47'0 0.0
2014-Dec-11 09:31N 44°44' E 037°47'0 0.0
2014-Dec-11 08:32N 44°44' E 037°47'0 0.0
2014-Dec-11 07:32N 44°44' E 037°47'0 0.0
2014-Dec-11 06:33N 44°44' E 037°47'0 0.0
2014-Dec-11 05:31N 44°44' E 037°47'0 0.0
2014-Dec-11 04:28N 44°44' E 037°47'0 0.0
2014-Dec-11 03:32N 44°44' E 037°47'0 0.0
2014-Dec-11 02:33N 44°44' E 037°47'0 0.0
2014-Dec-11 01:33N 44°44' E 037°47'0 0.0
2014-Dec-11 00:31N 44°44' E 037°47'  

Dump ship's entire track history